Terminal Aerodrome Forecast
Issued by NWS

Current Version | Previous Version | Text Only | Print | Product List | Glossary On
Versions: 1 2 3 4 5 6 7 8 9 10 11 12 13 14 15 16 17 18 19 20 21 22 23 24 25 26
000
FTUS46 KPDT 302300
TAFYKM
TAF
KYKM 302334Z 3100/3124 VRB04KT P6SM OVC011
     FM310300 28003KT 4SM BR OVC008
     FM311700 27003KT 6SM BR OVC010
     FM312000 VRB03KT P6SM OVC012=

USA.gov is the U.S. government's official web portal to all federal, state and local government web resources and services.